aviador You're here:

KUGN Decoded Metar

CHICAGO in IL, USA
Report Time2017-11-23 19:55:00
UTC Time2017-11-23 20:15:29
Flight Rules vfr VFR
Wind220° at 10 kt
W.Decomp.*RWY 23: 9.9 kt HW 1.2 kt LCW
RWY 14: 1.2 kt HW 9.9 kt RCW
W.Rank220° ranks 1
Current wind is above 220° avg. (9.1)
Visibility9999 m
Phenomena:N/A
Clouds:N/A
Expected CloudBase > 4,400 ft AGL from Temp-Dew spread
CeilingNone
Temp07°C (ISA -7)
Dew Point-4°C (46% RH)
AAT0.9°C
QNH1012 hPa
Density Alt43 ft
Elevation728 ft
Report Wrong Elevation
Raw Report
METAR KUGN 231955Z 22010KT 10SM CLR 07/M04 A2989 RMK AO2 SLP132 T00671039=

Extra information for KUGN:More info

Metar Taf Metar & Taf Last 4 Metars F.Rules Stats Wind Profile Meteogram Temp Stats Airport Information Weather charts Add Link Nearby VenuesMetar ALERT Operation Metar Decoded Social comments

AIRNAV info for KUGN